sensor_id;sensor_type;location;lat;lon;timestamp;pressure;altitude;pressure_sealevel;temperature;humidity
12799;BME280;19250;42.646;26.980;2022-10-31T00:00:27;99217.97;;;17.19;76.38
12799;BME280;19250;42.646;26.980;2022-10-31T00:02:54;99212.06;;;17.30;75.24
12799;BME280;19250;42.646;26.980;2022-10-31T00:05:21;99213.25;;;17.00;76.53
12799;BME280;19250;42.646;26.980;2022-10-31T00:07:51;99207.25;;;17.26;76.53
12799;BME280;19250;42.646;26.980;2022-10-31T00:10:19;99202.53;;;17.34;75.62
12799;BME280;19250;42.646;26.980;2022-10-31T00:12:46;99205.22;;;17.34;75.36
12799;BME280;19250;42.646;26.980;2022-10-31T00:15:13;99210.00;;;17.32;74.43
12799;BME280;19250;42.646;26.980;2022-10-31T00:17:42;99209.00;;;17.40;74.20
12799;BME280;19250;42.646;26.980;2022-10-31T00:20:09;99207.84;;;16.37;80.20
12799;BME280;19250;42.646;26.980;2022-10-31T00:22:37;99205.53;;;15.98;83.09
12799;BME280;19250;42.646;26.980;2022-10-31T00:25:04;99210.78;;;16.20;82.92
12799;BME280;19250;42.646;26.980;2022-10-31T00:27:31;99200.72;;;16.65;80.93
12799;BME280;19250;42.646;26.980;2022-10-31T00:29:59;99193.44;;;16.44;81.22
12799;BME280;19250;42.646;26.980;2022-10-31T00:32:28;99203.75;;;16.41;81.49
12799;BME280;19250;42.646;26.980;2022-10-31T00:34:58;99195.09;;;16.60;80.89
12799;BME280;19250;42.646;26.980;2022-10-31T00:37:25;99197.84;;;16.94;78.48
12799;BME280;19250;42.646;26.980;2022-10-31T00:39:53;99190.28;;;17.04;76.80
12799;BME280;19250;42.646;26.980;2022-10-31T00:42:21;99185.78;;;17.11;76.74
12799;BME280;19250;42.646;26.980;2022-10-31T00:44:48;99192.69;;;16.93;77.98
12799;BME280;19250;42.646;26.980;2022-10-31T00:47:15;99180.31;;;15.69;86.13
12799;BME280;19250;42.646;26.980;2022-10-31T00:49:42;99188.91;;;16.30;84.48
12799;BME280;19250;42.646;26.980;2022-10-31T00:52:11;99183.84;;;16.77;81.61
12799;BME280;19250;42.646;26.980;2022-10-31T00:54:38;99189.25;;;17.05;80.11
12799;BME280;19250;42.646;26.980;2022-10-31T00:57:05;99185.75;;;16.83;80.01
12799;BME280;19250;42.646;26.980;2022-10-31T00:59:33;99187.13;;;17.01;79.25
12799;BME280;19250;42.646;26.980;2022-10-31T01:02:00;99188.25;;;17.06;77.98
12799;BME280;19250;42.646;26.980;2022-10-31T01:04:27;99202.31;;;16.80;79.48
12799;BME280;19250;42.646;26.980;2022-10-31T01:06:54;99191.50;;;17.02;77.49
12799;BME280;19250;42.646;26.980;2022-10-31T01:09:23;99199.94;;;16.92;78.39
12799;BME280;19250;42.646;26.980;2022-10-31T01:11:50;99190.25;;;17.25;77.18
12799;BME280;19250;42.646;26.980;2022-10-31T01:14:18;99202.75;;;17.05;77.37
12799;BME280;19250;42.646;26.980;2022-10-31T01:16:45;99205.47;;;16.63;80.68
12799;BME280;19250;42.646;26.980;2022-10-31T01:19:12;99208.81;;;16.50;81.86
12799;BME280;19250;42.646;26.980;2022-10-31T01:21:39;99206.28;;;16.27;83.56
12799;BME280;19250;42.646;26.980;2022-10-31T01:24:08;99207.88;;;16.22;85.14
12799;BME280;19250;42.646;26.980;2022-10-31T01:26:37;99215.28;;;16.34;83.94
12799;BME280;19250;42.646;26.980;2022-10-31T01:29:06;99212.91;;;16.10;85.61
12799;BME280;19250;42.646;26.980;2022-10-31T01:31:35;99218.84;;;16.20;85.63
12799;BME280;19250;42.646;26.980;2022-10-31T01:34:03;99206.16;;;16.00;86.52
12799;BME280;19250;42.646;26.980;2022-10-31T01:36:32;99209.41;;;16.10;86.07
12799;BME280;19250;42.646;26.980;2022-10-31T01:39:02;99209.94;;;16.20;86.17
12799;BME280;19250;42.646;26.980;2022-10-31T01:41:32;99207.28;;;16.05;87.32
12799;BME280;19250;42.646;26.980;2022-10-31T01:44:03;99176.97;;;15.82;87.58
12799;BME280;19250;42.646;26.980;2022-10-31T01:46:53;99208.66;;;16.01;88.09
12799;BME280;19250;42.646;26.980;2022-10-31T01:49:24;99189.75;;;15.95;87.88
12799;BME280;19250;42.646;26.980;2022-10-31T01:51:54;99210.03;;;16.26;86.79
12799;BME280;19250;42.646;26.980;2022-10-31T01:54:26;99211.81;;;16.41;85.88
12799;BME280;19250;42.646;26.980;2022-10-31T01:56:56;99209.34;;;16.24;86.79
12799;BME280;19250;42.646;26.980;2022-10-31T01:59:29;99200.91;;;16.27;86.62
12799;BME280;19250;42.646;26.980;2022-10-31T02:01:57;99210.53;;;16.37;87.04
12799;BME280;19250;42.646;26.980;2022-10-31T02:04:25;99187.44;;;16.84;82.99
12799;BME280;19250;42.646;26.980;2022-10-31T02:06:56;99203.16;;;16.81;82.77
12799;BME280;19250;42.646;26.980;2022-10-31T02:09:25;99199.94;;;17.20;81.28
12799;BME280;19250;42.646;26.980;2022-10-31T02:11:56;99207.72;;;17.57;79.56
12799;BME280;19250;42.646;26.980;2022-10-31T02:14:27;99210.50;;;17.70;78.46
12799;BME280;19250;42.646;26.980;2022-10-31T02:16:56;99188.47;;;17.67;76.86
12799;BME280;19250;42.646;26.980;2022-10-31T02:19:30;99201.34;;;17.71;78.09
12799;BME280;19250;42.646;26.980;2022-10-31T02:22:02;99210.44;;;17.64;77.72
12799;BME280;19250;42.646;26.980;2022-10-31T02:24:56;99214.34;;;17.55;78.64
12799;BME280;19250;42.646;26.980;2022-10-31T02:27:44;99226.09;;;16.98;82.10
12799;BME280;19250;42.646;26.980;2022-10-31T02:30:21;99202.25;;;16.74;83.53
12799;BME280;19250;42.646;26.980;2022-10-31T02:33:02;99215.91;;;16.72;84.09
12799;BME280;19250;42.646;26.980;2022-10-31T02:35:40;99220.94;;;17.24;81.64
12799;BME280;19250;42.646;26.980;2022-10-31T02:38:19;99216.72;;;17.15;81.54
12799;BME280;19250;42.646;26.980;2022-10-31T02:40:53;99217.09;;;17.12;81.07
12799;BME280;19250;42.646;26.980;2022-10-31T02:43:29;99219.88;;;17.53;79.77
12799;BME280;19250;42.646;26.980;2022-10-31T02:46:03;99217.22;;;17.87;77.42
12799;BME280;19250;42.646;26.980;2022-10-31T02:48:34;99218.75;;;18.03;75.84
12799;BME280;19250;42.646;26.980;2022-10-31T02:51:04;99228.13;;;18.20;74.58
12799;BME280;19250;42.646;26.980;2022-10-31T02:53:32;99226.31;;;18.27;74.11
12799;BME280;19250;42.646;26.980;2022-10-31T02:56:02;99222.34;;;18.23;74.80
12799;BME280;19250;42.646;26.980;2022-10-31T02:58:33;99217.81;;;18.30;74.01
12799;BME280;19250;42.646;26.980;2022-10-31T03:04:11;99222.75;;;18.20;73.92
12799;BME280;19250;42.646;26.980;2022-10-31T03:06:47;99224.88;;;18.31;74.87
12799;BME280;19250;42.646;26.980;2022-10-31T03:09:21;99230.44;;;18.23;75.81
12799;BME280;19250;42.646;26.980;2022-10-31T03:11:54;99225.06;;;18.30;75.30
12799;BME280;19250;42.646;26.980;2022-10-31T03:14:28;99218.88;;;17.88;76.92
12799;BME280;19250;42.646;26.980;2022-10-31T03:17:01;99222.41;;;17.55;79.56
12799;BME280;19250;42.646;26.980;2022-10-31T03:19:34;99224.56;;;17.66;81.41
12799;BME280;19250;42.646;26.980;2022-10-31T03:22:06;99216.69;;;17.71;79.33
12799;BME280;19250;42.646;26.980;2022-10-31T03:24:38;99224.06;;;17.90;79.98
12799;BME280;19250;42.646;26.980;2022-10-31T03:27:09;99226.22;;;18.08;80.19
12799;BME280;19250;42.646;26.980;2022-10-31T03:29:38;99232.31;;;18.16;78.27
12799;BME280;19250;42.646;26.980;2022-10-31T03:32:08;99238.50;;;18.10;79.08
12799;BME280;19250;42.646;26.980;2022-10-31T03:34:40;99232.63;;;18.00;80.04
12799;BME280;19250;42.646;26.980;2022-10-31T03:37:13;99238.44;;;17.97;79.35
12799;BME280;19250;42.646;26.980;2022-10-31T03:40:00;99232.44;;;18.08;79.74
12799;BME280;19250;42.646;26.980;2022-10-31T03:42:31;99235.28;;;17.93;80.23
12799;BME280;19250;42.646;26.980;2022-10-31T03:45:02;99223.63;;;17.86;80.00
12799;BME280;19250;42.646;26.980;2022-10-31T03:47:31;99228.66;;;17.96;79.29
12799;BME280;19250;42.646;26.980;2022-10-31T03:50:01;99235.16;;;18.08;77.67
12799;BME280;19250;42.646;26.980;2022-10-31T03:52:31;99237.69;;;18.16;76.48
12799;BME280;19250;42.646;26.980;2022-10-31T03:55:06;99231.09;;;18.25;75.90
12799;BME280;19250;42.646;26.980;2022-10-31T03:57:37;99243.94;;;18.23;75.39
12799;BME280;19250;42.646;26.980;2022-10-31T04:00:09;99243.94;;;18.23;75.36
12799;BME280;19250;42.646;26.980;2022-10-31T04:02:40;99237.72;;;18.29;74.81
12799;BME280;19250;42.646;26.980;2022-10-31T04:05:12;99251.03;;;18.31;74.80
12799;BME280;19250;42.646;26.980;2022-10-31T04:07:43;99255.59;;;18.30;74.54
12799;BME280;19250;42.646;26.980;2022-10-31T04:10:13;99259.81;;;18.46;73.55
12799;BME280;19250;42.646;26.980;2022-10-31T04:12:44;99268.38;;;18.50;73.83
12799;BME280;19250;42.646;26.980;2022-10-31T04:15:14;99272.03;;;18.42;73.91
12799;BME280;19250;42.646;26.980;2022-10-31T04:17:43;99268.53;;;18.48;73.97
12799;BME280;19250;42.646;26.980;2022-10-31T04:20:15;99269.06;;;18.65;72.81
12799;BME280;19250;42.646;26.980;2022-10-31T04:22:42;99275.06;;;18.60;73.67
12799;BME280;19250;42.646;26.980;2022-10-31T04:25:09;99271.47;;;18.46;74.35
12799;BME280;19250;42.646;26.980;2022-10-31T04:27:37;99269.44;;;18.55;74.56
12799;BME280;19250;42.646;26.980;2022-10-31T04:30:05;99277.72;;;18.54;73.96
12799;BME280;19250;42.646;26.980;2022-10-31T04:32:32;99259.75;;;17.92;75.38
12799;BME280;19250;42.646;26.980;2022-10-31T04:35:00;99281.72;;;18.23;75.43
12799;BME280;19250;42.646;26.980;2022-10-31T04:37:28;99288.06;;;17.68;78.22
12799;BME280;19250;42.646;26.980;2022-10-31T04:43:17;99292.16;;;17.43;80.13
12799;BME280;19250;42.646;26.980;2022-10-31T04:45:45;99296.09;;;17.40;80.22
12799;BME280;19250;42.646;26.980;2022-10-31T04:48:12;99305.72;;;17.50;79.82
12799;BME280;19250;42.646;26.980;2022-10-31T04:50:39;99304.59;;;17.16;82.22
12799;BME280;19250;42.646;26.980;2022-10-31T04:53:08;99303.19;;;17.20;82.91
12799;BME280;19250;42.646;26.980;2022-10-31T04:58:57;99303.59;;;17.94;78.46
12799;BME280;19250;42.646;26.980;2022-10-31T05:01:25;99314.16;;;18.30;76.09
12799;BME280;19250;42.646;26.980;2022-10-31T05:03:53;99327.06;;;18.34;75.53
12799;BME280;19250;42.646;26.980;2022-10-31T05:06:20;99326.50;;;18.45;74.22
12799;BME280;19250;42.646;26.980;2022-10-31T05:08:49;99336.66;;;18.43;75.11
12799;BME280;19250;42.646;26.980;2022-10-31T05:11:16;99339.34;;;18.37;74.85
12799;BME280;19250;42.646;26.980;2022-10-31T05:13:44;99333.28;;;18.35;75.73
12799;BME280;19250;42.646;26.980;2022-10-31T05:16:11;99338.69;;;18.28;76.55
12799;BME280;19250;42.646;26.980;2022-10-31T05:18:38;99334.69;;;17.90;79.86
12799;BME280;19250;42.646;26.980;2022-10-31T05:21:05;99350.28;;;18.22;78.07
12799;BME280;19250;42.646;26.980;2022-10-31T05:27:34;99360.19;;;18.15;76.56
12799;BME280;19250;42.646;26.980;2022-10-31T05:30:02;99355.91;;;18.27;76.24
12799;BME280;19250;42.646;26.980;2022-10-31T05:32:29;99361.94;;;18.02;77.33
12799;BME280;19250;42.646;26.980;2022-10-31T05:34:56;99363.13;;;18.55;74.95
12799;BME280;19250;42.646;26.980;2022-10-31T05:37:23;99367.91;;;18.53;74.54
12799;BME280;19250;42.646;26.980;2022-10-31T05:39:51;99368.72;;;18.53;74.02
12799;BME280;19250;42.646;26.980;2022-10-31T05:42:18;99363.44;;;18.79;72.24
12799;BME280;19250;42.646;26.980;2022-10-31T05:44:47;99376.88;;;19.14;69.89
12799;BME280;19250;42.646;26.980;2022-10-31T05:47:14;99373.94;;;19.15;69.89
12799;BME280;19250;42.646;26.980;2022-10-31T05:49:41;99387.75;;;19.40;69.55
12799;BME280;19250;42.646;26.980;2022-10-31T05:52:08;99389.59;;;19.26;69.04
12799;BME280;19250;42.646;26.980;2022-10-31T05:54:36;99384.38;;;19.31;69.51
12799;BME280;19250;42.646;26.980;2022-10-31T05:57:03;99384.78;;;19.28;68.97
12799;BME280;19250;42.646;26.980;2022-10-31T05:59:30;99387.69;;;19.27;68.86
12799;BME280;19250;42.646;26.980;2022-10-31T06:01:59;99391.06;;;19.35;68.58
12799;BME280;19250;42.646;26.980;2022-10-31T06:04:26;99395.00;;;19.26;68.42
12799;BME280;19250;42.646;26.980;2022-10-31T06:06:53;99386.69;;;19.34;68.51
12799;BME280;19250;42.646;26.980;2022-10-31T06:09:21;99391.25;;;19.34;68.11
12799;BME280;19250;42.646;26.980;2022-10-31T06:11:48;99387.28;;;19.30;68.97
12799;BME280;19250;42.646;26.980;2022-10-31T06:14:15;99388.31;;;19.22;69.67
12799;BME280;19250;42.646;26.980;2022-10-31T06:16:43;99395.56;;;19.15;69.52
12799;BME280;19250;42.646;26.980;2022-10-31T06:19:11;99395.75;;;19.07;71.01
12799;BME280;19250;42.646;26.980;2022-10-31T06:21:39;99398.47;;;19.07;70.65
12799;BME280;19250;42.646;26.980;2022-10-31T06:24:06;99404.03;;;18.99;71.30
12799;BME280;19250;42.646;26.980;2022-10-31T06:26:33;99400.13;;;19.01;71.00
12799;BME280;19250;42.646;26.980;2022-10-31T06:29:01;99397.22;;;19.10;70.21
12799;BME280;19250;42.646;26.980;2022-10-31T06:31:28;99407.41;;;19.08;71.37
12799;BME280;19250;42.646;26.980;2022-10-31T06:33:55;99409.56;;;19.32;70.02
12799;BME280;19250;42.646;26.980;2022-10-31T06:36:26;99411.50;;;19.58;68.29
12799;BME280;19250;42.646;26.980;2022-10-31T06:38:53;99408.19;;;19.62;69.04
12799;BME280;19250;42.646;26.980;2022-10-31T06:41:21;99405.69;;;19.67;68.60
12799;BME280;19250;42.646;26.980;2022-10-31T06:43:48;99408.38;;;19.67;68.64
12799;BME280;19250;42.646;26.980;2022-10-31T06:46:15;99415.88;;;19.91;66.69
12799;BME280;19250;42.646;26.980;2022-10-31T06:48:43;99383.19;;;20.06;65.39
12799;BME280;19250;42.646;26.980;2022-10-31T06:51:10;99415.00;;;20.63;61.98
12799;BME280;19250;42.646;26.980;2022-10-31T06:53:39;99414.13;;;20.76;58.70
12799;BME280;19250;42.646;26.980;2022-10-31T06:56:06;99417.72;;;21.14;57.79
12799;BME280;19250;42.646;26.980;2022-10-31T06:58:34;99418.38;;;21.47;56.03
12799;BME280;19250;42.646;26.980;2022-10-31T07:01:01;99414.53;;;21.30;56.88
12799;BME280;19250;42.646;26.980;2022-10-31T07:03:28;99426.81;;;21.70;55.35
12799;BME280;19250;42.646;26.980;2022-10-31T07:05:56;99414.81;;;22.52;51.12
12799;BME280;19250;42.646;26.980;2022-10-31T07:08:24;99424.13;;;23.47;45.74
12799;BME280;19250;42.646;26.980;2022-10-31T07:10:55;99420.16;;;24.26;43.11
12799;BME280;19250;42.646;26.980;2022-10-31T07:13:23;99417.59;;;25.06;41.36
12799;BME280;19250;42.646;26.980;2022-10-31T07:15:52;99418.78;;;25.66;38.32
12799;BME280;19250;42.646;26.980;2022-10-31T07:18:20;99417.31;;;25.75;38.14
12799;BME280;19250;42.646;26.980;2022-10-31T07:20:48;99407.16;;;25.03;38.94
12799;BME280;19250;42.646;26.980;2022-10-31T07:23:15;99418.34;;;24.89;39.47
12799;BME280;19250;42.646;26.980;2022-10-31T07:25:42;99412.34;;;24.53;40.31
12799;BME280;19250;42.646;26.980;2022-10-31T07:28:11;99415.47;;;23.92;43.14
12799;BME280;19250;42.646;26.980;2022-10-31T07:30:39;99414.91;;;23.90;43.99
12799;BME280;19250;42.646;26.980;2022-10-31T07:33:06;99410.19;;;24.08;43.52
12799;BME280;19250;42.646;26.980;2022-10-31T07:35:33;99413.44;;;24.40;41.72
12799;BME280;19250;42.646;26.980;2022-10-31T07:38:08;99415.88;;;24.53;40.31
12799;BME280;19250;42.646;26.980;2022-10-31T07:40:35;99422.84;;;24.96;40.49
12799;BME280;19250;42.646;26.980;2022-10-31T07:43:03;99417.47;;;25.69;38.65
12799;BME280;19250;42.646;26.980;2022-10-31T07:45:31;99406.47;;;25.07;38.85
12799;BME280;19250;42.646;26.980;2022-10-31T07:47:59;99415.22;;;25.49;38.12
12799;BME280;19250;42.646;26.980;2022-10-31T07:50:29;99420.34;;;25.06;39.43
12799;BME280;19250;42.646;26.980;2022-10-31T07:52:58;99410.94;;;25.41;39.05
12799;BME280;19250;42.646;26.980;2022-10-31T07:55:26;99426.31;;;25.31;38.58
12799;BME280;19250;42.646;26.980;2022-10-31T07:57:58;99422.84;;;24.96;38.73
12799;BME280;19250;42.646;26.980;2022-10-31T08:00:26;99429.03;;;24.79;39.78
12799;BME280;19250;42.646;26.980;2022-10-31T08:03:02;99430.69;;;25.04;38.75
12799;BME280;19250;42.646;26.980;2022-10-31T08:05:31;99424.66;;;24.90;39.09
12799;BME280;19250;42.646;26.980;2022-10-31T08:07:58;99428.22;;;24.90;39.27
12799;BME280;19250;42.646;26.980;2022-10-31T08:10:27;99427.28;;;24.50;39.74
12799;BME280;19250;42.646;26.980;2022-10-31T08:12:58;99428.34;;;24.26;40.85
12799;BME280;19250;42.646;26.980;2022-10-31T08:15:26;99432.59;;;24.92;40.76
12799;BME280;19250;42.646;26.980;2022-10-31T08:17:53;99445.63;;;25.69;38.09
12799;BME280;19250;42.646;26.980;2022-10-31T08:20:22;99446.19;;;26.33;37.08
12799;BME280;19250;42.646;26.980;2022-10-31T08:22:54;99444.16;;;27.22;34.30
12799;BME280;19250;42.646;26.980;2022-10-31T08:25:21;99440.50;;;27.54;33.62
12799;BME280;19250;42.646;26.980;2022-10-31T08:27:50;99433.19;;;27.92;33.40
12799;BME280;19250;42.646;26.980;2022-10-31T08:30:18;99430.84;;;28.37;32.36
12799;BME280;19250;42.646;26.980;2022-10-31T08:32:47;99437.97;;;29.32;31.23
12799;BME280;19250;42.646;26.980;2022-10-31T08:35:15;99434.66;;;29.25;30.81
12799;BME280;19250;42.646;26.980;2022-10-31T08:37:43;99439.16;;;29.72;30.06
12799;BME280;19250;42.646;26.980;2022-10-31T08:40:11;99442.22;;;29.75;29.69
12799;BME280;19250;42.646;26.980;2022-10-31T08:42:39;99441.97;;;29.92;29.22
12799;BME280;19250;42.646;26.980;2022-10-31T08:45:07;99438.13;;;30.38;29.18
12799;BME280;19250;42.646;26.980;2022-10-31T08:47:35;99428.69;;;30.80;28.89
12799;BME280;19250;42.646;26.980;2022-10-31T08:50:02;99439.25;;;31.37;29.68
12799;BME280;19250;42.646;26.980;2022-10-31T08:52:30;99432.22;;;31.64;27.54
12799;BME280;19250;42.646;26.980;2022-10-31T08:54:58;99444.44;;;29.83;29.00
12799;BME280;19250;42.646;26.980;2022-10-31T08:57:26;99447.75;;;29.08;30.70
12799;BME280;19250;42.646;26.980;2022-10-31T08:59:53;99448.53;;;27.18;33.14
12799;BME280;19250;42.646;26.980;2022-10-31T09:02:20;99444.91;;;27.87;32.55
12799;BME280;19250;42.646;26.980;2022-10-31T09:04:47;99418.81;;;27.31;32.76
12799;BME280;19250;42.646;26.980;2022-10-31T09:07:15;99449.34;;;27.93;32.63
12799;BME280;19250;42.646;26.980;2022-10-31T09:09:42;99447.28;;;28.74;32.00
12799;BME280;19250;42.646;26.980;2022-10-31T09:12:11;99450.97;;;29.00;30.89
12799;BME280;19250;42.646;26.980;2022-10-31T09:14:38;99442.47;;;28.18;31.80
12799;BME280;19250;42.646;26.980;2022-10-31T09:17:05;99440.03;;;28.63;31.32
12799;BME280;19250;42.646;26.980;2022-10-31T09:19:32;99440.97;;;28.74;31.62
12799;BME280;19250;42.646;26.980;2022-10-31T09:22:01;99443.28;;;28.55;31.10
12799;BME280;19250;42.646;26.980;2022-10-31T09:24:28;99440.16;;;28.78;31.18
12799;BME280;19250;42.646;26.980;2022-10-31T09:26:56;99445.31;;;29.16;30.35
12799;BME280;19250;42.646;26.980;2022-10-31T09:29:26;99412.50;;;28.48;31.00
12799;BME280;19250;42.646;26.980;2022-10-31T09:31:56;99433.44;;;30.34;28.98
12799;BME280;19250;42.646;26.980;2022-10-31T09:34:23;99418.88;;;30.33;29.10
12799;BME280;19250;42.646;26.980;2022-10-31T09:36:50;99440.56;;;30.65;29.01
12799;BME280;19250;42.646;26.980;2022-10-31T09:39:19;99416.22;;;31.12;28.28
12799;BME280;19250;42.646;26.980;2022-10-31T09:41:57;99434.59;;;32.20;26.20
12799;BME280;19250;42.646;26.980;2022-10-31T09:44:39;99435.09;;;31.49;26.85
12799;BME280;19250;42.646;26.980;2022-10-31T09:47:17;99442.72;;;32.06;26.79
12799;BME280;19250;42.646;26.980;2022-10-31T09:49:58;99432.41;;;31.78;25.84
12799;BME280;19250;42.646;26.980;2022-10-31T09:52:30;99415.19;;;31.91;26.60
12799;BME280;19250;42.646;26.980;2022-10-31T09:55:02;99434.69;;;32.10;26.13
12799;BME280;19250;42.646;26.980;2022-10-31T09:57:33;99438.69;;;31.40;26.86
12799;BME280;19250;42.646;26.980;2022-10-31T10:00:04;99439.75;;;30.64;27.54
12799;BME280;19250;42.646;26.980;2022-10-31T10:02:37;99438.84;;;31.09;27.29
12799;BME280;19250;42.646;26.980;2022-10-31T10:05:11;99435.09;;;30.55;27.85
12799;BME280;19250;42.646;26.980;2022-10-31T10:07:44;99433.28;;;31.14;27.39
12799;BME280;19250;42.646;26.980;2022-10-31T10:10:18;99433.78;;;31.26;27.59
12799;BME280;19250;42.646;26.980;2022-10-31T10:13:09;99441.69;;;30.64;28.12
12799;BME280;19250;42.646;26.980;2022-10-31T10:15:54;99433.13;;;29.80;29.34
12799;BME280;19250;42.646;26.980;2022-10-31T10:18:33;99440.16;;;29.30;29.84
12799;BME280;19250;42.646;26.980;2022-10-31T10:21:17;99408.38;;;29.75;29.52
12799;BME280;19250;42.646;26.980;2022-10-31T10:24:01;99436.75;;;30.61;28.70
12799;BME280;19250;42.646;26.980;2022-10-31T10:26:36;99437.22;;;31.57;27.84
12799;BME280;19250;42.646;26.980;2022-10-31T10:29:17;99434.63;;;32.15;26.55
12799;BME280;19250;42.646;26.980;2022-10-31T10:31:53;99432.72;;;31.71;27.25
12799;BME280;19250;42.646;26.980;2022-10-31T10:34:25;99429.75;;;30.89;28.01
12799;BME280;19250;42.646;26.980;2022-10-31T10:36:58;99419.97;;;32.19;26.34
12799;BME280;19250;42.646;26.980;2022-10-31T10:39:30;99421.81;;;31.95;26.78
12799;BME280;19250;42.646;26.980;2022-10-31T10:42:00;99422.50;;;31.28;27.19
12799;BME280;19250;42.646;26.980;2022-10-31T10:44:47;99423.97;;;32.66;25.94
12799;BME280;19250;42.646;26.980;2022-10-31T10:47:39;99424.19;;;32.69;25.65
12799;BME280;19250;42.646;26.980;2022-10-31T10:50:13;99420.75;;;32.25;25.79
12799;BME280;19250;42.646;26.980;2022-10-31T10:52:48;99427.28;;;32.34;25.53
12799;BME280;19250;42.646;26.980;2022-10-31T10:55:27;99424.13;;;32.98;24.95
12799;BME280;19250;42.646;26.980;2022-10-31T10:57:58;99426.66;;;32.13;25.55
12799;BME280;19250;42.646;26.980;2022-10-31T11:00:29;99422.09;;;31.45;26.55
12799;BME280;19250;42.646;26.980;2022-10-31T11:02:58;99427.66;;;31.35;26.90
12799;BME280;19250;42.646;26.980;2022-10-31T11:05:33;99427.84;;;30.89;26.93
12799;BME280;19250;42.646;26.980;2022-10-31T11:08:02;99424.53;;;30.87;27.27
12799;BME280;19250;42.646;26.980;2022-10-31T11:10:29;99414.53;;;31.16;27.35
12799;BME280;19250;42.646;26.980;2022-10-31T11:13:20;99408.34;;;30.70;27.94
12799;BME280;19250;42.646;26.980;2022-10-31T11:15:57;99373.03;;;29.21;29.17
12799;BME280;19250;42.646;26.980;2022-10-31T11:18:30;99395.44;;;30.61;28.25
12799;BME280;19250;42.646;26.980;2022-10-31T11:21:00;99394.75;;;32.60;25.48
12799;BME280;19250;42.646;26.980;2022-10-31T11:23:28;99406.16;;;32.77;25.38
12799;BME280;19250;42.646;26.980;2022-10-31T11:25:57;99403.59;;;30.91;26.96
12799;BME280;19250;42.646;26.980;2022-10-31T11:28:26;99405.34;;;30.37;28.21
12799;BME280;19250;42.646;26.980;2022-10-31T11:30:57;99401.34;;;31.08;27.17
12799;BME280;19250;42.646;26.980;2022-10-31T11:33:30;99402.00;;;31.49;26.42
12799;BME280;19250;42.646;26.980;2022-10-31T11:36:00;99403.88;;;31.54;25.98
12799;BME280;19250;42.646;26.980;2022-10-31T11:38:33;99397.94;;;30.07;27.57
12799;BME280;19250;42.646;26.980;2022-10-31T11:41:09;99349.22;;;31.17;25.98
12799;BME280;19250;42.646;26.980;2022-10-31T11:43:38;99397.22;;;31.60;25.35
12799;BME280;19250;42.646;26.980;2022-10-31T11:46:11;99398.91;;;31.56;26.31
12799;BME280;19250;42.646;26.980;2022-10-31T11:48:47;99383.44;;;32.27;25.36
12799;BME280;19250;42.646;26.980;2022-10-31T11:51:20;99381.59;;;32.18;25.11
12799;BME280;19250;42.646;26.980;2022-10-31T11:53:51;99391.78;;;31.89;25.55
12799;BME280;19250;42.646;26.980;2022-10-31T11:56:19;99387.34;;;31.44;25.40
12799;BME280;19250;42.646;26.980;2022-10-31T11:58:55;99388.63;;;32.00;24.71
12799;BME280;19250;42.646;26.980;2022-10-31T12:01:25;99384.94;;;32.44;23.90
12799;BME280;19250;42.646;26.980;2022-10-31T12:04:02;99393.66;;;33.27;23.44
12799;BME280;19250;42.646;26.980;2022-10-31T12:06:33;99383.09;;;33.10;23.31
12799;BME280;19250;42.646;26.980;2022-10-31T12:09:01;99369.53;;;34.34;22.43
12799;BME280;19250;42.646;26.980;2022-10-31T12:11:42;99366.78;;;35.43;21.04
12799;BME280;19250;42.646;26.980;2022-10-31T12:14:18;99374.97;;;35.84;21.21
12799;BME280;19250;42.646;26.980;2022-10-31T12:16:53;99374.84;;;36.42;20.63
12799;BME280;19250;42.646;26.980;2022-10-31T12:19:34;99380.97;;;35.78;21.10
12799;BME280;19250;42.646;26.980;2022-10-31T12:22:11;99362.19;;;35.75;20.82
12799;BME280;19250;42.646;26.980;2022-10-31T12:24:52;99372.88;;;35.68;20.70
12799;BME280;19250;42.646;26.980;2022-10-31T12:27:32;99382.50;;;36.06;20.81
12799;BME280;19250;42.646;26.980;2022-10-31T12:30:12;99381.19;;;35.32;21.04
12799;BME280;19250;42.646;26.980;2022-10-31T12:32:51;99377.53;;;35.09;21.02
12799;BME280;19250;42.646;26.980;2022-10-31T12:35:34;99385.72;;;34.87;21.24
12799;BME280;19250;42.646;26.980;2022-10-31T12:38:29;99378.97;;;35.56;20.85
12799;BME280;19250;42.646;26.980;2022-10-31T12:41:15;99369.00;;;35.19;20.92
12799;BME280;19250;42.646;26.980;2022-10-31T12:43:50;99367.00;;;35.69;20.45
12799;BME280;19250;42.646;26.980;2022-10-31T12:46:27;99355.38;;;36.65;19.81
12799;BME280;19250;42.646;26.980;2022-10-31T12:49:16;99376.59;;;37.74;18.75
12799;BME280;19250;42.646;26.980;2022-10-31T12:51:59;99358.56;;;37.80;18.76
12799;BME280;19250;42.646;26.980;2022-10-31T12:54:45;99378.69;;;37.59;18.48
12799;BME280;19250;42.646;26.980;2022-10-31T12:57:23;99379.00;;;36.23;19.83
12799;BME280;19250;42.646;26.980;2022-10-31T12:59:59;99383.78;;;35.50;20.44
12799;BME280;19250;42.646;26.980;2022-10-31T13:02:33;99378.59;;;34.54;21.27
12799;BME280;19250;42.646;26.980;2022-10-31T13:05:05;99383.91;;;33.72;22.44
12799;BME280;19250;42.646;26.980;2022-10-31T13:07:42;99377.03;;;33.69;22.30
12799;BME280;19250;42.646;26.980;2022-10-31T13:10:16;99378.13;;;33.07;22.90
12799;BME280;19250;42.646;26.980;2022-10-31T13:12:47;99385.16;;;34.30;21.37
12799;BME280;19250;42.646;26.980;2022-10-31T13:15:19;99380.81;;;34.24;21.84
12799;BME280;19250;42.646;26.980;2022-10-31T13:17:50;99352.13;;;34.47;21.50
12799;BME280;19250;42.646;26.980;2022-10-31T13:20:24;99390.66;;;35.04;21.41
12799;BME280;19250;42.646;26.980;2022-10-31T13:22:57;99388.19;;;34.15;22.15